sensor_id;sensor_type;location;lat;lon;timestamp;pressure;altitude;pressure_sealevel;temperature;humidity
9035;BME280;4552;43.422;24.592;2023-03-22T01:45:56;99631.50;;;12.00;100.00
9035;BME280;4552;43.422;24.592;2023-03-22T01:48:25;99627.38;;;11.92;100.00
9035;BME280;4552;43.422;24.592;2023-03-22T01:51:00;99627.63;;;11.80;100.00
9035;BME280;4552;43.422;24.592;2023-03-22T01:53:31;99626.75;;;11.81;100.00
9035;BME280;4552;43.422;24.592;2023-03-22T01:55:59;99629.16;;;11.90;100.00
9035;BME280;4552;43.422;24.592;2023-03-22T01:58:26;99632.69;;;11.89;100.00
9035;BME280;4552;43.422;24.592;2023-03-22T02:21:40;99642.03;;;11.61;100.00
9035;BME280;4552;43.422;24.592;2023-03-22T02:27:44;99644.56;;;11.67;100.00
9035;BME280;4552;43.422;24.592;2023-03-22T03:44:59;99674.59;;;11.51;100.00
9035;BME280;4552;43.422;24.592;2023-03-22T03:47:27;99676.31;;;11.52;100.00
9035;BME280;4552;43.422;24.592;2023-03-22T03:49:54;99684.91;;;11.60;100.00
9035;BME280;4552;43.422;24.592;2023-03-22T03:52:22;99676.97;;;11.64;100.00
9035;BME280;4552;43.422;24.592;2023-03-22T03:54:50;99682.38;;;11.55;100.00
9035;BME280;4552;43.422;24.592;2023-03-22T03:57:17;99671.00;;;11.55;100.00
9035;BME280;4552;43.422;24.592;2023-03-22T03:59:44;99684.03;;;11.59;100.00
9035;BME280;4552;43.422;24.592;2023-03-22T04:02:12;99663.25;;;11.50;100.00
9035;BME280;4552;43.422;24.592;2023-03-22T04:04:41;99681.47;;;11.56;100.00
9035;BME280;4552;43.422;24.592;2023-03-22T04:07:08;99681.44;;;11.58;100.00
9035;BME280;4552;43.422;24.592;2023-03-22T04:09:36;99684.06;;;11.58;100.00
9035;BME280;4552;43.422;24.592;2023-03-22T04:12:05;99690.94;;;11.62;100.00
9035;BME280;4552;43.422;24.592;2023-03-22T04:14:34;99691.09;;;11.54;100.00
9035;BME280;4552;43.422;24.592;2023-03-22T04:17:01;99698.13;;;11.52;100.00
9035;BME280;4552;43.422;24.592;2023-03-22T04:19:29;99700.63;;;11.60;100.00
9035;BME280;4552;43.422;24.592;2023-03-22T04:21:56;99702.22;;;11.67;100.00
9035;BME280;4552;43.422;24.592;2023-03-22T04:24:25;99703.88;;;11.71;100.00
9035;BME280;4552;43.422;24.592;2023-03-22T04:26:52;99706.44;;;11.74;100.00
9035;BME280;4552;43.422;24.592;2023-03-22T04:29:19;99716.00;;;11.76;100.00
9035;BME280;4552;43.422;24.592;2023-03-22T04:31:48;99722.19;;;11.72;100.00
9035;BME280;4552;43.422;24.592;2023-03-22T04:34:17;99716.81;;;11.78;100.00
9035;BME280;4552;43.422;24.592;2023-03-22T04:36:45;99696.84;;;11.73;100.00
9035;BME280;4552;43.422;24.592;2023-03-22T04:39:12;99709.06;;;11.74;100.00
9035;BME280;4552;43.422;24.592;2023-03-22T04:41:39;99721.34;;;11.72;100.00
9035;BME280;4552;43.422;24.592;2023-03-22T04:44:06;99721.34;;;11.72;100.00
9035;BME280;4552;43.422;24.592;2023-03-22T04:46:35;99721.19;;;11.79;100.00
9035;BME280;4552;43.422;24.592;2023-03-22T04:49:02;99724.78;;;11.74;100.00
9035;BME280;4552;43.422;24.592;2023-03-22T04:51:30;99731.00;;;11.70;100.00
9035;BME280;4552;43.422;24.592;2023-03-22T04:53:58;99715.13;;;11.76;100.00
9035;BME280;4552;43.422;24.592;2023-03-22T04:56:25;99728.19;;;11.79;100.00
9035;BME280;4552;43.422;24.592;2023-03-22T04:58:52;99716.69;;;11.84;100.00
9035;BME280;4552;43.422;24.592;2023-03-22T08:24:55;99857.69;;;12.14;100.00
9035;BME280;4552;43.422;24.592;2023-03-22T08:27:22;99853.47;;;12.06;100.00
9035;BME280;4552;43.422;24.592;2023-03-22T08:29:49;99860.00;;;12.28;100.00
9035;BME280;4552;43.422;24.592;2023-03-22T08:32:16;99860.88;;;12.29;100.00
9035;BME280;4552;43.422;24.592;2023-03-22T08:34:44;99861.09;;;12.19;100.00
9035;BME280;4552;43.422;24.592;2023-03-22T09:00:45;99862.75;;;12.22;100.00
9035;BME280;4552;43.422;24.592;2023-03-22T09:03:12;99866.13;;;12.29;100.00
9035;BME280;4552;43.422;24.592;2023-03-22T09:05:40;99879.69;;;12.47;100.00
9035;BME280;4552;43.422;24.592;2023-03-22T09:08:07;99884.94;;;12.47;100.00
9035;BME280;4552;43.422;24.592;2023-03-22T09:10:37;99864.13;;;12.38;100.00
9035;BME280;4552;43.422;24.592;2023-03-22T09:13:04;99880.38;;;12.55;100.00
9035;BME280;4552;43.422;24.592;2023-03-22T09:15:31;99872.47;;;12.57;100.00
9035;BME280;4552;43.422;24.592;2023-03-22T09:17:59;99874.38;;;12.50;100.00
9035;BME280;4552;43.422;24.592;2023-03-22T09:20:26;99883.56;;;12.69;100.00
9035;BME280;4552;43.422;24.592;2023-03-22T09:22:53;99890.34;;;12.78;100.00
9035;BME280;4552;43.422;24.592;2023-03-22T09:25:20;99891.81;;;12.91;100.00
9035;BME280;4552;43.422;24.592;2023-03-22T09:27:47;99895.38;;;12.88;100.00
9035;BME280;4552;43.422;24.592;2023-03-22T09:30:13;99883.00;;;12.92;100.00
9035;BME280;4552;43.422;24.592;2023-03-22T09:32:40;99878.50;;;12.98;100.00
9035;BME280;4552;43.422;24.592;2023-03-22T09:35:09;99877.38;;;13.08;100.00
9035;BME280;4552;43.422;24.592;2023-03-22T09:44:24;99878.25;;;13.09;100.00
9035;BME280;4552;43.422;24.592;2023-03-22T09:46:54;99867.59;;;13.15;100.00
9035;BME280;4552;43.422;24.592;2023-03-22T09:49:27;99868.47;;;13.15;100.00
9035;BME280;4552;43.422;24.592;2023-03-22T09:51:57;99869.28;;;13.51;100.00
9035;BME280;4552;43.422;24.592;2023-03-22T10:49:44;99882.97;;;13.94;100.00
9035;BME280;4552;43.422;24.592;2023-03-22T10:52:23;99875.28;;;13.86;100.00
9035;BME280;4552;43.422;24.592;2023-03-22T10:58:15;99864.59;;;13.92;100.00
9035;BME280;4552;43.422;24.592;2023-03-22T11:00:44;99870.59;;;13.67;100.00
9035;BME280;4552;43.422;24.592;2023-03-22T11:03:25;99862.56;;;13.71;100.00
9035;BME280;4552;43.422;24.592;2023-03-22T11:06:03;99864.75;;;13.86;100.00
9035;BME280;4552;43.422;24.592;2023-03-22T11:52:21;99841.59;;;13.04;100.00
9035;BME280;4552;43.422;24.592;2023-03-22T11:54:49;99835.63;;;12.96;100.00
9035;BME280;4552;43.422;24.592;2023-03-22T11:57:20;99842.50;;;13.03;100.00
9035;BME280;4552;43.422;24.592;2023-03-22T12:19:26;99851.25;;;13.02;100.00
9035;BME280;4552;43.422;24.592;2023-03-22T12:21:58;99847.75;;;13.03;100.00
9035;BME280;4552;43.422;24.592;2023-03-22T12:24:27;99835.63;;;12.96;100.00
9035;BME280;4552;43.422;24.592;2023-03-22T12:26:58;99851.41;;;12.95;100.00
9035;BME280;4552;43.422;24.592;2023-03-22T12:29:27;99849.53;;;13.01;100.00
9035;BME280;4552;43.422;24.592;2023-03-22T12:32:00;99847.59;;;12.73;100.00
9035;BME280;4552;43.422;24.592;2023-03-22T12:34:36;99843.56;;;12.58;100.00
9035;BME280;4552;43.422;24.592;2023-03-22T12:37:06;99841.66;;;12.65;100.00
9035;BME280;4552;43.422;24.592;2023-03-22T12:39:38;99850.50;;;12.97;100.00
9035;BME280;4552;43.422;24.592;2023-03-22T12:42:12;99842.56;;;12.99;100.00
9035;BME280;4552;43.422;24.592;2023-03-22T12:44:43;99841.50;;;13.07;100.00
9035;BME280;4552;43.422;24.592;2023-03-22T12:47:16;99843.81;;;13.19;100.00
9035;BME280;4552;43.422;24.592;2023-03-22T12:49:52;99845.03;;;13.06;100.00
9035;BME280;4552;43.422;24.592;2023-03-22T12:52:24;99855.16;;;12.86;100.00
9035;BME280;4552;43.422;24.592;2023-03-22T12:54:53;99843.03;;;12.79;100.00
9035;BME280;4552;43.422;24.592;2023-03-22T12:57:23;99841.06;;;12.89;100.00
9035;BME280;4552;43.422;24.592;2023-03-22T13:43:56;99840.38;;;13.51;100.00
9035;BME280;4552;43.422;24.592;2023-03-22T13:46:45;99842.38;;;13.41;100.00
9035;BME280;4552;43.422;24.592;2023-03-22T13:52:06;99827.25;;;13.49;100.00
9035;BME280;4552;43.422;24.592;2023-03-22T13:54:40;99841.44;;;13.42;100.00
9035;BME280;4552;43.422;24.592;2023-03-22T13:57:16;99835.59;;;13.63;100.00
9035;BME280;4552;43.422;24.592;2023-03-22T14:00:12;99830.59;;;13.54;100.00
9035;BME280;4552;43.422;24.592;2023-03-22T14:02:43;99824.69;;;13.46;100.00
9035;BME280;4552;43.422;24.592;2023-03-22T14:05:14;99826.59;;;13.41;100.00
9035;BME280;4552;43.422;24.592;2023-03-22T14:07:43;99834.41;;;13.11;100.00
9035;BME280;4552;43.422;24.592;2023-03-22T14:10:15;99825.84;;;13.03;100.00
9035;BME280;4552;43.422;24.592;2023-03-22T14:12:48;99833.47;;;13.13;100.00
9035;BME280;4552;43.422;24.592;2023-03-22T14:15:21;99838.41;;;13.25;100.00
9035;BME280;4552;43.422;24.592;2023-03-22T14:17:53;99835.34;;;13.08;100.00
9035;BME280;4552;43.422;24.592;2023-03-22T14:20:23;99835.41;;;13.05;100.00
9035;BME280;4552;43.422;24.592;2023-03-22T14:22:56;99825.97;;;12.97;100.00
9035;BME280;4552;43.422;24.592;2023-03-22T14:25:25;99833.13;;;12.90;100.00
9035;BME280;4552;43.422;24.592;2023-03-22T14:27:53;99831.47;;;12.88;100.00
9035;BME280;4552;43.422;24.592;2023-03-22T14:30:28;99829.31;;;13.05;100.00
9035;BME280;4552;43.422;24.592;2023-03-22T14:33:04;99830.44;;;12.93;100.00
9035;BME280;4552;43.422;24.592;2023-03-22T14:35:36;99838.13;;;13.02;100.00
9035;BME280;4552;43.422;24.592;2023-03-22T14:38:05;99832.25;;;12.91;100.00
9035;BME280;4552;43.422;24.592;2023-03-22T14:40:35;99839.31;;;12.89;100.00
9035;BME280;4552;43.422;24.592;2023-03-22T14:43:14;99839.94;;;12.99;100.00
9035;BME280;4552;43.422;24.592;2023-03-22T14:55:49;99846.59;;;13.47;100.00
9035;BME280;4552;43.422;24.592;2023-03-22T14:58:18;99846.59;;;13.47;100.00
9035;BME280;4552;43.422;24.592;2023-03-22T16:25:24;99920.72;;;12.53;100.00
9035;BME280;4552;43.422;24.592;2023-03-22T16:27:51;99924.97;;;12.57;100.00
9035;BME280;4552;43.422;24.592;2023-03-22T16:40:27;99912.41;;;12.71;100.00
9035;BME280;4552;43.422;24.592;2023-03-22T16:42:55;99920.41;;;12.66;100.00
9035;BME280;4552;43.422;24.592;2023-03-22T17:05:37;99939.81;;;12.19;100.00
9035;BME280;4552;43.422;24.592;2023-03-22T17:08:04;99946.66;;;12.25;100.00
9035;BME280;4552;43.422;24.592;2023-03-22T17:10:37;99954.41;;;12.31;100.00
9035;BME280;4552;43.422;24.592;2023-03-22T17:13:11;99953.50;;;12.32;100.00
9035;BME280;4552;43.422;24.592;2023-03-22T17:15:42;99957.94;;;12.30;100.00
9035;BME280;4552;43.422;24.592;2023-03-22T17:18:09;99952.84;;;12.23;100.00
9035;BME280;4552;43.422;24.592;2023-03-22T17:20:39;99963.16;;;12.32;100.00
9035;BME280;4552;43.422;24.592;2023-03-22T17:23:09;99960.53;;;12.32;100.00
9035;BME280;4552;43.422;24.592;2023-03-22T17:25:38;99964.66;;;12.43;100.00
9035;BME280;4552;43.422;24.592;2023-03-22T17:28:07;99961.19;;;12.41;100.00
9035;BME280;4552;43.422;24.592;2023-03-22T18:00:52;99982.66;;;11.73;100.00
9035;BME280;4552;43.422;24.592;2023-03-22T18:03:19;99991.38;;;11.73;100.00
9035;BME280;4552;43.422;24.592;2023-03-22T18:05:46;99994.88;;;11.72;100.00
9035;BME280;4552;43.422;24.592;2023-03-22T18:08:13;99991.56;;;11.64;100.00
9035;BME280;4552;43.422;24.592;2023-03-22T18:10:41;99988.47;;;11.90;100.00
9035;BME280;4552;43.422;24.592;2023-03-22T18:13:08;99986.31;;;11.61;100.00
9035;BME280;4552;43.422;24.592;2023-03-22T19:54:36;100014.94;;;10.57;100.00
9035;BME280;4552;43.422;24.592;2023-03-22T19:57:03;100005.19;;;10.69;100.00
9035;BME280;4552;43.422;24.592;2023-03-22T19:59:30;100029.41;;;10.86;100.00
9035;BME280;4552;43.422;24.592;2023-03-22T20:01:57;100005.72;;;10.94;100.00
9035;BME280;4552;43.422;24.592;2023-03-22T20:04:25;100015.44;;;10.86;100.00
9035;BME280;4552;43.422;24.592;2023-03-22T20:06:52;100018.72;;;11.01;100.00
9035;BME280;4552;43.422;24.592;2023-03-22T20:09:19;100020.63;;;10.89;100.00
9035;BME280;4552;43.422;24.592;2023-03-22T20:11:47;100024.34;;;10.74;100.00
9035;BME280;4552;43.422;24.592;2023-03-22T20:14:15;100023.28;;;10.86;100.00
9035;BME280;4552;43.422;24.592;2023-03-22T20:16:42;100011.19;;;10.79;100.00
9035;BME280;4552;43.422;24.592;2023-03-22T20:19:09;100016.28;;;10.88;100.00
9035;BME280;4552;43.422;24.592;2023-03-22T20:21:36;100024.88;;;10.99;100.00
9035;BME280;4552;43.422;24.592;2023-03-22T20:24:06;100028.28;;;11.04;100.00
9035;BME280;4552;43.422;24.592;2023-03-22T20:26:33;100009.19;;;10.97;100.00
9035;BME280;4552;43.422;24.592;2023-03-22T20:29:03;100030.81;;;11.10;100.00
9035;BME280;4552;43.422;24.592;2023-03-22T20:59:46;100019.91;;;10.78;100.00
9035;BME280;4552;43.422;24.592;2023-03-22T21:02:13;100012.94;;;10.77;100.00
9035;BME280;4552;43.422;24.592;2023-03-22T21:04:43;100017.09;;;10.94;100.00
9035;BME280;4552;43.422;24.592;2023-03-22T21:07:11;100017.75;;;11.07;100.00
9035;BME280;4552;43.422;24.592;2023-03-22T21:09:38;100022.31;;;10.94;100.00
9035;BME280;4552;43.422;24.592;2023-03-22T21:12:06;100012.81;;;10.86;100.00
9035;BME280;4552;43.422;24.592;2023-03-22T21:14:33;100011.97;;;10.84;100.00
9035;BME280;4552;43.422;24.592;2023-03-22T21:24:13;100023.06;;;11.01;100.00
9035;BME280;4552;43.422;24.592;2023-03-22T21:26:40;100014.59;;;10.84;100.00
9035;BME280;4552;43.422;24.592;2023-03-22T21:29:07;100023.63;;;10.60;100.00
9035;BME280;4552;43.422;24.592;2023-03-22T21:31:36;100020.28;;;10.47;100.00
9035;BME280;4552;43.422;24.592;2023-03-22T21:34:03;100030.75;;;10.47;100.00
9035;BME280;4552;43.422;24.592;2023-03-22T21:36:30;100024.72;;;10.41;100.00
9035;BME280;4552;43.422;24.592;2023-03-22T21:38:58;100020.38;;;10.41;100.00
9035;BME280;4552;43.422;24.592;2023-03-22T21:41:28;100021.25;;;10.42;100.00
9035;BME280;4552;43.422;24.592;2023-03-22T21:43:55;100024.00;;;10.30;100.00
9035;BME280;4552;43.422;24.592;2023-03-22T21:56:29;100035.47;;;10.18;100.00
9035;BME280;4552;43.422;24.592;2023-03-22T21:58:58;100036.47;;;10.02;100.00
9035;BME280;4552;43.422;24.592;2023-03-22T22:11:33;100032.25;;;9.88;100.00
9035;BME280;4552;43.422;24.592;2023-03-22T22:14:01;100035.56;;;10.05;100.00
9035;BME280;4552;43.422;24.592;2023-03-22T22:26:36;100038.09;;;10.17;100.00
9035;BME280;4552;43.422;24.592;2023-03-22T22:29:03;100048.44;;;10.27;100.00
9035;BME280;4552;43.422;24.592;2023-03-22T22:35:14;100046.72;;;10.26;100.00
9035;BME280;4552;43.422;24.592;2023-03-22T22:37:41;100051.97;;;10.23;100.00
9035;BME280;4552;43.422;24.592;2023-03-22T22:40:09;100051.28;;;10.03;100.00
9035;BME280;4552;43.422;24.592;2023-03-22T22:42:38;100048.69;;;10.00;100.00
9035;BME280;4552;43.422;24.592;2023-03-22T22:45:07;100060.00;;;10.07;100.00
9035;BME280;4552;43.422;24.592;2023-03-22T23:05:24;100060.88;;;10.00;100.00
9035;BME280;4552;43.422;24.592;2023-03-22T23:07:51;100054.09;;;9.82;100.00
9035;BME280;4552;43.422;24.592;2023-03-22T23:10:18;100057.53;;;9.86;100.00
9035;BME280;4552;43.422;24.592;2023-03-22T23:12:46;100059.84;;;10.20;100.00
9035;BME280;4552;43.422;24.592;2023-03-22T23:15:14;100053.53;;;10.38;100.00
9035;BME280;4552;43.422;24.592;2023-03-22T23:17:41;100048.47;;;10.24;100.00
9035;BME280;4552;43.422;24.592;2023-03-22T23:20:12;100050.13;;;10.34;100.00
9035;BME280;4552;43.422;24.592;2023-03-22T23:22:42;100050.25;;;10.19;100.00
9035;BME280;4552;43.422;24.592;2023-03-22T23:25:12;100063.13;;;10.42;100.00
9035;BME280;4552;43.422;24.592;2023-03-22T23:27:41;100037.03;;;10.36;100.00
9035;BME280;4552;43.422;24.592;2023-03-22T23:30:10;100053.50;;;10.41;100.00
9035;BME280;4552;43.422;24.592;2023-03-22T23:32:37;100049.94;;;10.49;100.00
9035;BME280;4552;43.422;24.592;2023-03-22T23:35:05;100064.03;;;10.36;100.00
9035;BME280;4552;43.422;24.592;2023-03-22T23:37:34;100060.75;;;10.16;100.00
9035;BME280;4552;43.422;24.592;2023-03-22T23:40:04;100068.63;;;10.15;100.00
9035;BME280;4552;43.422;24.592;2023-03-22T23:42:35;100083.47;;;10.14;100.00
9035;BME280;4552;43.422;24.592;2023-03-22T23:45:04;100075.56;;;10.20;100.00
9035;BME280;4552;43.422;24.592;2023-03-22T23:57:38;100085.19;;;10.15;100.00
